sensor_id;sensor_type;location;lat;lon;timestamp;P1;durP1;ratioP1;P2;durP2;ratioP2
53269;SDS011;39159;45.634;9.420;2022-12-17T00:02:06;52.83;;;32.47;;
53269;SDS011;39159;45.634;9.420;2022-12-17T00:04:50;53.42;;;33.92;;
53269;SDS011;39159;45.634;9.420;2022-12-17T00:07:34;53.05;;;32.55;;
53269;SDS011;39159;45.634;9.420;2022-12-17T00:10:18;51.25;;;32.80;;
53269;SDS011;39159;45.634;9.420;2022-12-17T00:13:02;59.17;;;38.10;;
53269;SDS011;39159;45.634;9.420;2022-12-17T00:15:50;51.10;;;33.60;;
53269;SDS011;39159;45.634;9.420;2022-12-17T00:18:34;58.67;;;33.53;;
53269;SDS011;39159;45.634;9.420;2022-12-17T00:21:18;54.55;;;33.95;;
53269;SDS011;39159;45.634;9.420;2022-12-17T00:24:02;54.20;;;33.75;;
53269;SDS011;39159;45.634;9.420;2022-12-17T00:27:03;55.50;;;33.88;;
53269;SDS011;39159;45.634;9.420;2022-12-17T00:29:46;60.83;;;36.75;;
53269;SDS011;39159;45.634;9.420;2022-12-17T00:32:30;58.72;;;36.70;;
53269;SDS011;39159;45.634;9.420;2022-12-17T00:35:14;57.28;;;35.10;;
53269;SDS011;39159;45.634;9.420;2022-12-17T00:37:58;54.28;;;33.80;;
53269;SDS011;39159;45.634;9.420;2022-12-17T00:40:42;51.45;;;34.35;;
53269;SDS011;39159;45.634;9.420;2022-12-17T00:43:26;56.08;;;32.70;;
53269;SDS011;39159;45.634;9.420;2022-12-17T00:46:10;56.92;;;34.75;;
53269;SDS011;39159;45.634;9.420;2022-12-17T00:48:54;51.95;;;32.80;;
53269;SDS011;39159;45.634;9.420;2022-12-17T00:51:38;54.22;;;34.00;;
53269;SDS011;39159;45.634;9.420;2022-12-17T00:54:22;53.70;;;34.47;;
53269;SDS011;39159;45.634;9.420;2022-12-17T00:57:06;52.38;;;34.33;;
53269;SDS011;39159;45.634;9.420;2022-12-17T00:59:50;60.80;;;37.80;;
53269;SDS011;39159;45.634;9.420;2022-12-17T01:02:34;56.38;;;37.22;;
53269;SDS011;39159;45.634;9.420;2022-12-17T01:05:18;66.32;;;39.88;;
53269;SDS011;39159;45.634;9.420;2022-12-17T01:08:08;58.75;;;36.65;;
53269;SDS011;39159;45.634;9.420;2022-12-17T01:11:01;57.63;;;35.60;;
53269;SDS011;39159;45.634;9.420;2022-12-17T01:13:47;55.38;;;34.78;;
53269;SDS011;39159;45.634;9.420;2022-12-17T01:16:31;61.05;;;35.05;;
53269;SDS011;39159;45.634;9.420;2022-12-17T01:19:15;53.00;;;33.45;;
53269;SDS011;39159;45.634;9.420;2022-12-17T01:21:59;62.38;;;38.38;;
53269;SDS011;39159;45.634;9.420;2022-12-17T01:24:43;58.05;;;34.60;;
53269;SDS011;39159;45.634;9.420;2022-12-17T01:27:38;65.68;;;39.42;;
53269;SDS011;39159;45.634;9.420;2022-12-17T01:30:22;84.78;;;40.63;;
53269;SDS011;39159;45.634;9.420;2022-12-17T01:33:06;76.30;;;39.20;;
53269;SDS011;39159;45.634;9.420;2022-12-17T01:35:55;58.05;;;35.35;;
53269;SDS011;39159;45.634;9.420;2022-12-17T01:38:41;57.58;;;35.22;;
53269;SDS011;39159;45.634;9.420;2022-12-17T01:41:25;56.05;;;34.47;;
53269;SDS011;39159;45.634;9.420;2022-12-17T01:47:36;52.45;;;33.33;;
53269;SDS011;39159;45.634;9.420;2022-12-17T01:50:25;52.80;;;35.10;;
53269;SDS011;39159;45.634;9.420;2022-12-17T01:53:12;52.42;;;35.22;;
53269;SDS011;39159;45.634;9.420;2022-12-17T01:55:59;51.67;;;34.67;;
53269;SDS011;39159;45.634;9.420;2022-12-17T01:58:44;50.38;;;32.13;;
53269;SDS011;39159;45.634;9.420;2022-12-17T02:01:29;49.35;;;33.40;;
53269;SDS011;39159;45.634;9.420;2022-12-17T02:04:13;57.65;;;36.22;;
53269;SDS011;39159;45.634;9.420;2022-12-17T02:07:33;51.65;;;33.22;;
53269;SDS011;39159;45.634;9.420;2022-12-17T02:13:10;52.53;;;35.40;;
53269;SDS011;39159;45.634;9.420;2022-12-17T02:19:30;51.88;;;32.92;;
53269;SDS011;39159;45.634;9.420;2022-12-17T02:25:15;53.70;;;32.45;;
53269;SDS011;39159;45.634;9.420;2022-12-17T02:28:08;49.72;;;31.63;;
53269;SDS011;39159;45.634;9.420;2022-12-17T02:30:52;49.83;;;31.92;;
53269;SDS011;39159;45.634;9.420;2022-12-17T02:33:37;54.75;;;34.58;;
53269;SDS011;39159;45.634;9.420;2022-12-17T02:36:22;49.30;;;31.52;;
53269;SDS011;39159;45.634;9.420;2022-12-17T02:39:06;54.53;;;34.30;;
53269;SDS011;39159;45.634;9.420;2022-12-17T02:41:57;51.22;;;33.65;;
53269;SDS011;39159;45.634;9.420;2022-12-17T02:44:41;51.33;;;31.58;;
53269;SDS011;39159;45.634;9.420;2022-12-17T02:47:26;51.47;;;33.22;;
53269;SDS011;39159;45.634;9.420;2022-12-17T02:50:11;53.30;;;33.95;;
53269;SDS011;39159;45.634;9.420;2022-12-17T02:52:57;51.17;;;33.85;;
53269;SDS011;39159;45.634;9.420;2022-12-17T02:55:42;51.25;;;33.95;;
53269;SDS011;39159;45.634;9.420;2022-12-17T02:58:26;47.17;;;29.90;;
53269;SDS011;39159;45.634;9.420;2022-12-17T03:01:10;46.42;;;31.17;;
53269;SDS011;39159;45.634;9.420;2022-12-17T03:03:54;68.18;;;33.55;;
53269;SDS011;39159;45.634;9.420;2022-12-17T03:06:37;51.30;;;32.67;;
53269;SDS011;39159;45.634;9.420;2022-12-17T03:09:21;49.03;;;30.73;;
53269;SDS011;39159;45.634;9.420;2022-12-17T03:12:05;49.05;;;30.58;;
53269;SDS011;39159;45.634;9.420;2022-12-17T03:14:49;45.35;;;29.58;;
53269;SDS011;39159;45.634;9.420;2022-12-17T03:17:33;51.42;;;32.08;;
53269;SDS011;39159;45.634;9.420;2022-12-17T03:20:17;69.15;;;32.03;;
53269;SDS011;39159;45.634;9.420;2022-12-17T03:23:02;47.47;;;31.15;;
53269;SDS011;39159;45.634;9.420;2022-12-17T03:25:51;79.60;;;32.75;;
53269;SDS011;39159;45.634;9.420;2022-12-17T03:28:35;45.28;;;29.55;;
53269;SDS011;39159;45.634;9.420;2022-12-17T03:31:20;42.88;;;28.88;;
53269;SDS011;39159;45.634;9.420;2022-12-17T03:34:04;43.67;;;28.83;;
53269;SDS011;39159;45.634;9.420;2022-12-17T03:36:48;54.00;;;29.85;;
53269;SDS011;39159;45.634;9.420;2022-12-17T03:39:31;46.35;;;29.83;;
53269;SDS011;39159;45.634;9.420;2022-12-17T03:42:15;44.83;;;29.02;;
53269;SDS011;39159;45.634;9.420;2022-12-17T03:44:59;46.72;;;29.15;;
53269;SDS011;39159;45.634;9.420;2022-12-17T03:47:43;47.63;;;28.08;;
53269;SDS011;39159;45.634;9.420;2022-12-17T03:50:27;47.00;;;28.23;;
53269;SDS011;39159;45.634;9.420;2022-12-17T03:53:11;50.63;;;29.30;;
53269;SDS011;39159;45.634;9.420;2022-12-17T03:55:55;45.40;;;29.38;;
53269;SDS011;39159;45.634;9.420;2022-12-17T03:58:39;46.10;;;28.27;;
53269;SDS011;39159;45.634;9.420;2022-12-17T04:01:23;52.40;;;28.83;;
53269;SDS011;39159;45.634;9.420;2022-12-17T04:04:26;45.50;;;27.80;;
53269;SDS011;39159;45.634;9.420;2022-12-17T04:07:10;49.28;;;27.60;;
53269;SDS011;39159;45.634;9.420;2022-12-17T04:09:54;40.05;;;26.85;;
53269;SDS011;39159;45.634;9.420;2022-12-17T04:12:38;42.30;;;25.90;;
53269;SDS011;39159;45.634;9.420;2022-12-17T04:15:22;55.55;;;26.75;;
53269;SDS011;39159;45.634;9.420;2022-12-17T04:18:06;40.75;;;25.65;;
53269;SDS011;39159;45.634;9.420;2022-12-17T04:20:50;44.53;;;25.25;;
53269;SDS011;39159;45.634;9.420;2022-12-17T04:23:34;56.97;;;24.50;;
53269;SDS011;39159;45.634;9.420;2022-12-17T04:26:18;58.28;;;25.48;;
53269;SDS011;39159;45.634;9.420;2022-12-17T04:29:02;39.08;;;22.98;;
53269;SDS011;39159;45.634;9.420;2022-12-17T04:31:46;50.40;;;24.42;;
53269;SDS011;39159;45.634;9.420;2022-12-17T04:34:30;35.40;;;21.33;;
53269;SDS011;39159;45.634;9.420;2022-12-17T04:37:14;35.40;;;21.05;;
53269;SDS011;39159;45.634;9.420;2022-12-17T04:39:58;66.47;;;21.48;;
53269;SDS011;39159;45.634;9.420;2022-12-17T04:42:42;38.58;;;21.25;;
53269;SDS011;39159;45.634;9.420;2022-12-17T04:45:26;55.22;;;20.73;;
53269;SDS011;39159;45.634;9.420;2022-12-17T04:48:10;79.68;;;22.73;;
53269;SDS011;39159;45.634;9.420;2022-12-17T04:50:54;46.30;;;23.00;;
53269;SDS011;39159;45.634;9.420;2022-12-17T04:53:38;35.95;;;22.33;;
53269;SDS011;39159;45.634;9.420;2022-12-17T04:56:22;36.60;;;20.98;;
53269;SDS011;39159;45.634;9.420;2022-12-17T04:59:06;35.55;;;20.33;;
53269;SDS011;39159;45.634;9.420;2022-12-17T05:01:50;35.30;;;20.08;;
53269;SDS011;39159;45.634;9.420;2022-12-17T05:04:35;34.33;;;20.25;;
53269;SDS011;39159;45.634;9.420;2022-12-17T05:07:19;35.45;;;19.95;;
53269;SDS011;39159;45.634;9.420;2022-12-17T05:10:03;39.92;;;21.75;;
53269;SDS011;39159;45.634;9.420;2022-12-17T05:12:54;64.72;;;21.95;;
53269;SDS011;39159;45.634;9.420;2022-12-17T05:15:39;56.60;;;22.85;;
53269;SDS011;39159;45.634;9.420;2022-12-17T05:18:23;58.15;;;21.48;;
53269;SDS011;39159;45.634;9.420;2022-12-17T05:21:07;41.28;;;20.77;;
53269;SDS011;39159;45.634;9.420;2022-12-17T05:23:51;63.05;;;22.42;;
53269;SDS011;39159;45.634;9.420;2022-12-17T05:26:34;33.50;;;20.05;;
53269;SDS011;39159;45.634;9.420;2022-12-17T05:29:18;34.08;;;20.00;;
53269;SDS011;39159;45.634;9.420;2022-12-17T05:32:02;44.35;;;20.17;;
53269;SDS011;39159;45.634;9.420;2022-12-17T05:34:46;32.72;;;19.00;;
53269;SDS011;39159;45.634;9.420;2022-12-17T05:37:30;56.83;;;20.38;;
53269;SDS011;39159;45.634;9.420;2022-12-17T05:40:14;99.82;;;23.55;;
53269;SDS011;39159;45.634;9.420;2022-12-17T05:42:59;46.03;;;20.58;;
53269;SDS011;39159;45.634;9.420;2022-12-17T05:45:51;32.78;;;18.92;;
53269;SDS011;39159;45.634;9.420;2022-12-17T05:48:35;32.85;;;19.38;;
53269;SDS011;39159;45.634;9.420;2022-12-17T05:51:19;80.80;;;22.05;;
53269;SDS011;39159;45.634;9.420;2022-12-17T05:54:05;34.08;;;19.65;;
53269;SDS011;39159;45.634;9.420;2022-12-17T05:57:03;51.92;;;21.25;;
53269;SDS011;39159;45.634;9.420;2022-12-17T05:59:47;38.20;;;20.55;;
53269;SDS011;39159;45.634;9.420;2022-12-17T06:02:31;35.72;;;20.15;;
53269;SDS011;39159;45.634;9.420;2022-12-17T06:05:15;80.15;;;21.40;;
53269;SDS011;39159;45.634;9.420;2022-12-17T06:08:03;39.72;;;19.60;;
53269;SDS011;39159;45.634;9.420;2022-12-17T06:10:48;30.13;;;18.75;;
53269;SDS011;39159;45.634;9.420;2022-12-17T06:13:32;33.50;;;17.63;;
53269;SDS011;39159;45.634;9.420;2022-12-17T06:16:16;29.30;;;17.67;;
53269;SDS011;39159;45.634;9.420;2022-12-17T06:19:00;77.43;;;18.48;;
53269;SDS011;39159;45.634;9.420;2022-12-17T06:21:44;33.08;;;17.50;;
53269;SDS011;39159;45.634;9.420;2022-12-17T06:24:48;29.10;;;17.60;;
53269;SDS011;39159;45.634;9.420;2022-12-17T06:27:32;28.85;;;17.15;;
53269;SDS011;39159;45.634;9.420;2022-12-17T06:30:16;40.10;;;18.58;;
53269;SDS011;39159;45.634;9.420;2022-12-17T06:33:04;32.50;;;17.55;;
53269;SDS011;39159;45.634;9.420;2022-12-17T06:35:50;123.72;;;19.98;;
53269;SDS011;39159;45.634;9.420;2022-12-17T06:38:35;52.67;;;18.13;;
53269;SDS011;39159;45.634;9.420;2022-12-17T06:41:19;25.38;;;15.85;;
53269;SDS011;39159;45.634;9.420;2022-12-17T06:44:03;24.00;;;15.63;;
53269;SDS011;39159;45.634;9.420;2022-12-17T06:46:47;25.52;;;15.35;;
53269;SDS011;39159;45.634;9.420;2022-12-17T06:49:31;40.60;;;15.93;;
53269;SDS011;39159;45.634;9.420;2022-12-17T06:52:15;80.45;;;18.75;;
53269;SDS011;39159;45.634;9.420;2022-12-17T06:54:58;27.85;;;16.88;;
53269;SDS011;39159;45.634;9.420;2022-12-17T06:57:42;49.00;;;18.02;;
53269;SDS011;39159;45.634;9.420;2022-12-17T07:00:26;35.00;;;16.45;;
53269;SDS011;39159;45.634;9.420;2022-12-17T07:03:10;28.83;;;17.38;;
53269;SDS011;39159;45.634;9.420;2022-12-17T07:05:54;35.22;;;17.52;;
53269;SDS011;39159;45.634;9.420;2022-12-17T07:08:38;49.58;;;21.75;;
53269;SDS011;39159;45.634;9.420;2022-12-17T07:11:33;48.75;;;25.77;;
53269;SDS011;39159;45.634;9.420;2022-12-17T07:14:17;41.67;;;24.25;;
53269;SDS011;39159;45.634;9.420;2022-12-17T07:17:01;42.75;;;21.33;;
53269;SDS011;39159;45.634;9.420;2022-12-17T07:19:44;26.13;;;16.48;;
53269;SDS011;39159;45.634;9.420;2022-12-17T07:22:28;34.00;;;20.58;;
53269;SDS011;39159;45.634;9.420;2022-12-17T07:25:12;37.45;;;18.73;;
53269;SDS011;39159;45.634;9.420;2022-12-17T07:27:56;43.92;;;19.42;;
53269;SDS011;39159;45.634;9.420;2022-12-17T07:30:40;34.72;;;19.67;;
53269;SDS011;39159;45.634;9.420;2022-12-17T07:33:24;35.03;;;19.17;;
53269;SDS011;39159;45.634;9.420;2022-12-17T07:36:08;28.15;;;16.65;;
53269;SDS011;39159;45.634;9.420;2022-12-17T07:38:52;36.55;;;16.58;;
53269;SDS011;39159;45.634;9.420;2022-12-17T07:41:36;76.07;;;17.27;;
53269;SDS011;39159;45.634;9.420;2022-12-17T07:44:22;44.05;;;15.77;;
53269;SDS011;39159;45.634;9.420;2022-12-17T07:47:06;87.80;;;16.27;;
53269;SDS011;39159;45.634;9.420;2022-12-17T07:49:50;61.70;;;14.57;;
53269;SDS011;39159;45.634;9.420;2022-12-17T07:52:34;28.40;;;12.18;;
53269;SDS011;39159;45.634;9.420;2022-12-17T07:55:18;44.53;;;14.07;;
53269;SDS011;39159;45.634;9.420;2022-12-17T07:58:03;25.83;;;12.82;;
53269;SDS011;39159;45.634;9.420;2022-12-17T08:00:49;30.15;;;12.68;;
53269;SDS011;39159;45.634;9.420;2022-12-17T08:03:33;61.25;;;15.05;;
53269;SDS011;39159;45.634;9.420;2022-12-17T08:06:17;109.63;;;15.15;;
53269;SDS011;39159;45.634;9.420;2022-12-17T08:09:18;24.58;;;12.80;;
53269;SDS011;39159;45.634;9.420;2022-12-17T08:12:01;28.45;;;14.35;;
53269;SDS011;39159;45.634;9.420;2022-12-17T08:14:46;19.38;;;11.32;;
53269;SDS011;39159;45.634;9.420;2022-12-17T08:17:30;32.95;;;12.05;;
53269;SDS011;39159;45.634;9.420;2022-12-17T08:20:14;102.88;;;14.57;;
53269;SDS011;39159;45.634;9.420;2022-12-17T08:23:04;20.25;;;11.02;;
53269;SDS011;39159;45.634;9.420;2022-12-17T08:25:48;16.83;;;10.75;;
53269;SDS011;39159;45.634;9.420;2022-12-17T08:28:31;19.58;;;11.10;;
53269;SDS011;39159;45.634;9.420;2022-12-17T08:31:15;24.38;;;13.93;;
53269;SDS011;39159;45.634;9.420;2022-12-17T08:34:00;20.00;;;13.75;;
53269;SDS011;39159;45.634;9.420;2022-12-17T08:36:44;24.98;;;12.95;;
53269;SDS011;39159;45.634;9.420;2022-12-17T08:39:28;17.85;;;11.15;;
53269;SDS011;39159;45.634;9.420;2022-12-17T08:42:12;19.35;;;11.40;;
53269;SDS011;39159;45.634;9.420;2022-12-17T08:44:56;18.13;;;10.60;;
53269;SDS011;39159;45.634;9.420;2022-12-17T08:47:40;17.17;;;11.10;;
53269;SDS011;39159;45.634;9.420;2022-12-17T08:50:23;19.80;;;11.68;;
53269;SDS011;39159;45.634;9.420;2022-12-17T08:53:07;22.27;;;12.05;;
53269;SDS011;39159;45.634;9.420;2022-12-17T08:55:51;21.27;;;12.60;;
53269;SDS011;39159;45.634;9.420;2022-12-17T08:58:35;20.60;;;11.73;;
53269;SDS011;39159;45.634;9.420;2022-12-17T09:01:19;20.13;;;11.80;;
53269;SDS011;39159;45.634;9.420;2022-12-17T09:04:03;26.33;;;12.13;;
53269;SDS011;39159;45.634;9.420;2022-12-17T09:06:47;23.98;;;11.45;;
53269;SDS011;39159;45.634;9.420;2022-12-17T09:09:31;30.65;;;11.48;;
53269;SDS011;39159;45.634;9.420;2022-12-17T09:12:15;19.83;;;11.40;;
53269;SDS011;39159;45.634;9.420;2022-12-17T09:14:59;57.83;;;12.38;;
53269;SDS011;39159;45.634;9.420;2022-12-17T09:17:43;18.40;;;11.10;;
53269;SDS011;39159;45.634;9.420;2022-12-17T09:20:26;19.80;;;10.43;;
53269;SDS011;39159;45.634;9.420;2022-12-17T09:23:13;32.30;;;12.70;;
53269;SDS011;39159;45.634;9.420;2022-12-17T09:25:59;17.38;;;9.85;;
53269;SDS011;39159;45.634;9.420;2022-12-17T09:28:43;18.42;;;10.68;;
53269;SDS011;39159;45.634;9.420;2022-12-17T09:31:27;34.70;;;10.98;;
53269;SDS011;39159;45.634;9.420;2022-12-17T09:34:11;40.40;;;10.38;;
53269;SDS011;39159;45.634;9.420;2022-12-17T09:36:54;15.73;;;9.80;;
53269;SDS011;39159;45.634;9.420;2022-12-17T09:39:38;19.63;;;10.82;;
53269;SDS011;39159;45.634;9.420;2022-12-17T09:42:24;21.20;;;11.52;;
53269;SDS011;39159;45.634;9.420;2022-12-17T09:46:16;24.90;;;11.25;;
53269;SDS011;39159;45.634;9.420;2022-12-17T09:51:43;30.00;;;11.60;;
53269;SDS011;39159;45.634;9.420;2022-12-17T09:54:28;23.10;;;11.35;;
53269;SDS011;39159;45.634;9.420;2022-12-17T09:57:16;19.75;;;11.35;;
53269;SDS011;39159;45.634;9.420;2022-12-17T10:00:17;48.42;;;13.18;;
53269;SDS011;39159;45.634;9.420;2022-12-17T10:03:11;16.60;;;11.45;;
53269;SDS011;39159;45.634;9.420;2022-12-17T10:06:05;25.67;;;11.27;;
53269;SDS011;39159;45.634;9.420;2022-12-17T10:08:56;16.20;;;10.27;;
53269;SDS011;39159;45.634;9.420;2022-12-17T10:11:43;24.33;;;12.68;;
53269;SDS011;39159;45.634;9.420;2022-12-17T10:14:26;17.00;;;10.45;;
53269;SDS011;39159;45.634;9.420;2022-12-17T10:17:20;22.27;;;12.50;;
53269;SDS011;39159;45.634;9.420;2022-12-17T10:20:20;33.08;;;12.98;;
53269;SDS011;39159;45.634;9.420;2022-12-17T10:23:06;19.05;;;10.85;;
53269;SDS011;39159;45.634;9.420;2022-12-17T10:25:54;18.15;;;11.43;;
53269;SDS011;39159;45.634;9.420;2022-12-17T10:28:39;35.47;;;13.18;;
53269;SDS011;39159;45.634;9.420;2022-12-17T10:31:25;21.55;;;12.10;;
53269;SDS011;39159;45.634;9.420;2022-12-17T10:34:16;23.90;;;11.73;;
53269;SDS011;39159;45.634;9.420;2022-12-17T10:37:02;35.53;;;15.23;;
53269;SDS011;39159;45.634;9.420;2022-12-17T10:39:54;19.75;;;11.73;;
53269;SDS011;39159;45.634;9.420;2022-12-17T10:42:40;23.75;;;13.82;;
53269;SDS011;39159;45.634;9.420;2022-12-17T10:45:35;28.25;;;12.65;;
53269;SDS011;39159;45.634;9.420;2022-12-17T10:51:30;49.72;;;14.43;;
53269;SDS011;39159;45.634;9.420;2022-12-17T10:57:06;25.08;;;12.48;;
53269;SDS011;39159;45.634;9.420;2022-12-17T10:59:50;23.73;;;11.65;;
53269;SDS011;39159;45.634;9.420;2022-12-17T11:02:34;33.13;;;14.25;;
53269;SDS011;39159;45.634;9.420;2022-12-17T11:05:24;40.33;;;12.88;;
53269;SDS011;39159;45.634;9.420;2022-12-17T11:08:12;29.95;;;15.32;;
53269;SDS011;39159;45.634;9.420;2022-12-17T11:10:59;31.30;;;12.18;;
53269;SDS011;39159;45.634;9.420;2022-12-17T11:13:46;22.17;;;11.23;;
53269;SDS011;39159;45.634;9.420;2022-12-17T11:16:43;21.52;;;11.75;;
53269;SDS011;39159;45.634;9.420;2022-12-17T11:19:46;27.20;;;14.00;;
53269;SDS011;39159;45.634;9.420;2022-12-17T11:22:43;25.67;;;14.30;;
53269;SDS011;39159;45.634;9.420;2022-12-17T11:25:31;25.60;;;13.93;;
53269;SDS011;39159;45.634;9.420;2022-12-17T11:28:24;21.40;;;12.02;;
53269;SDS011;39159;45.634;9.420;2022-12-17T11:34:05;23.40;;;14.13;;
53269;SDS011;39159;45.634;9.420;2022-12-17T11:36:58;27.73;;;14.38;;
53269;SDS011;39159;45.634;9.420;2022-12-17T11:39:57;29.13;;;14.48;;
53269;SDS011;39159;45.634;9.420;2022-12-17T11:42:57;26.92;;;16.50;;
53269;SDS011;39159;45.634;9.420;2022-12-17T11:45:55;30.70;;;17.02;;
53269;SDS011;39159;45.634;9.420;2022-12-17T11:52:21;27.90;;;16.42;;
53269;SDS011;39159;45.634;9.420;2022-12-17T11:55:26;27.83;;;15.77;;
53269;SDS011;39159;45.634;9.420;2022-12-17T11:58:26;31.35;;;17.17;;
53269;SDS011;39159;45.634;9.420;2022-12-17T12:01:29;33.28;;;17.40;;
53269;SDS011;39159;45.634;9.420;2022-12-17T12:07:41;32.15;;;18.40;;
53269;SDS011;39159;45.634;9.420;2022-12-17T12:10:35;32.42;;;18.27;;
53269;SDS011;39159;45.634;9.420;2022-12-17T12:13:29;29.33;;;16.95;;
53269;SDS011;39159;45.634;9.420;2022-12-17T12:19:33;28.55;;;17.48;;
53269;SDS011;39159;45.634;9.420;2022-12-17T12:22:30;28.77;;;16.90;;
53269;SDS011;39159;45.634;9.420;2022-12-17T12:34:07;27.98;;;17.27;;
53269;SDS011;39159;45.634;9.420;2022-12-17T12:36:59;27.85;;;17.48;;
53269;SDS011;39159;45.634;9.420;2022-12-17T12:39:51;24.40;;;16.10;;
53269;SDS011;39159;45.634;9.420;2022-12-17T12:42:48;23.20;;;16.10;;
53269;SDS011;39159;45.634;9.420;2022-12-17T12:45:42;24.02;;;16.17;;
53269;SDS011;39159;45.634;9.420;2022-12-17T12:48:44;22.17;;;14.95;;
53269;SDS011;39159;45.634;9.420;2022-12-17T12:51:33;22.33;;;15.02;;
53269;SDS011;39159;45.634;9.420;2022-12-17T12:54:20;24.58;;;15.30;;
53269;SDS011;39159;45.634;9.420;2022-12-17T12:57:04;23.48;;;15.73;;
53269;SDS011;39159;45.634;9.420;2022-12-17T12:59:48;22.17;;;14.75;;
53269;SDS011;39159;45.634;9.420;2022-12-17T13:02:32;23.02;;;15.40;;
53269;SDS011;39159;45.634;9.420;2022-12-17T13:08:15;24.35;;;15.60;;
53269;SDS011;39159;45.634;9.420;2022-12-17T13:10:43;23.95;;;15.43;;
53269;SDS011;39159;45.634;9.420;2022-12-17T13:13:32;24.98;;;16.10;;
53269;SDS011;39159;45.634;9.420;2022-12-17T13:16:19;24.67;;;16.23;;
53269;SDS011;39159;45.634;9.420;2022-12-17T13:19:19;27.98;;;18.35;;
53269;SDS011;39159;45.634;9.420;2022-12-17T13:24:38;31.23;;;19.67;;
53269;SDS011;39159;45.634;9.420;2022-12-17T13:29:52;29.48;;;19.40;;
53269;SDS011;39159;45.634;9.420;2022-12-17T13:32:27;32.83;;;20.65;;
53269;SDS011;39159;45.634;9.420;2022-12-17T13:38:06;35.60;;;21.20;;
53269;SDS011;39159;45.634;9.420;2022-12-17T13:40:47;36.50;;;21.83;;
53269;SDS011;39159;45.634;9.420;2022-12-17T13:43:38;41.13;;;24.27;;
53269;SDS011;39159;45.634;9.420;2022-12-17T13:46:40;39.30;;;23.90;;
53269;SDS011;39159;45.634;9.420;2022-12-17T13:49:18;42.35;;;23.65;;
53269;SDS011;39159;45.634;9.420;2022-12-17T13:51:46;37.50;;;22.17;;
53269;SDS011;39159;45.634;9.420;2022-12-17T13:54:15;40.17;;;22.25;;
53269;SDS011;39159;45.634;9.420;2022-12-17T13:56:42;37.97;;;22.52;;
53269;SDS011;39159;45.634;9.420;2022-12-17T13:59:18;37.65;;;22.83;;
53269;SDS011;39159;45.634;9.420;2022-12-17T14:01:46;41.03;;;24.52;;
53269;SDS011;39159;45.634;9.420;2022-12-17T14:04:21;47.33;;;24.92;;
53269;SDS011;39159;45.634;9.420;2022-12-17T14:06:55;48.30;;;26.52;;
53269;SDS011;39159;45.634;9.420;2022-12-17T14:09:25;54.63;;;25.40;;
53269;SDS011;39159;45.634;9.420;2022-12-17T14:11:56;51.72;;;27.40;;
53269;SDS011;39159;45.634;9.420;2022-12-17T14:14:45;52.63;;;27.38;;
53269;SDS011;39159;45.634;9.420;2022-12-17T14:17:20;87.23;;;30.83;;
53269;SDS011;39159;45.634;9.420;2022-12-17T14:19:47;58.97;;;28.33;;
53269;SDS011;39159;45.634;9.420;2022-12-17T14:22:57;67.10;;;28.50;;
53269;SDS011;39159;45.634;9.420;2022-12-17T14:28:04;59.67;;;28.83;;
53269;SDS011;39159;45.634;9.420;2022-12-17T14:30:37;59.30;;;30.42;;
53269;SDS011;39159;45.634;9.420;2022-12-17T14:35:54;65.63;;;32.00;;
53269;SDS011;39159;45.634;9.420;2022-12-17T14:38:22;108.22;;;34.40;;
53269;SDS011;39159;45.634;9.420;2022-12-17T14:40:48;78.30;;;32.92;;
53269;SDS011;39159;45.634;9.420;2022-12-17T14:43:14;87.70;;;35.33;;
53269;SDS011;39159;45.634;9.420;2022-12-17T14:45:47;102.10;;;35.90;;
53269;SDS011;39159;45.634;9.420;2022-12-17T14:48:34;102.95;;;35.22;;
53269;SDS011;39159;45.634;9.420;2022-12-17T14:51:19;80.10;;;32.88;;
53269;SDS011;39159;45.634;9.420;2022-12-17T14:53:51;97.75;;;36.17;;
53269;SDS011;39159;45.634;9.420;2022-12-17T14:56:20;117.38;;;36.72;;
53269;SDS011;39159;45.634;9.420;2022-12-17T14:58:47;93.35;;;36.53;;
53269;SDS011;39159;45.634;9.420;2022-12-17T15:01:13;90.90;;;34.90;;
53269;SDS011;39159;45.634;9.420;2022-12-17T15:03:40;95.72;;;36.28;;
53269;SDS011;39159;45.634;9.420;2022-12-17T15:06:10;76.20;;;36.45;;
53269;SDS011;39159;45.634;9.420;2022-12-17T15:08:44;72.60;;;33.13;;
53269;SDS011;39159;45.634;9.420;2022-12-17T15:11:12;58.20;;;27.63;;
53269;SDS011;39159;45.634;9.420;2022-12-17T15:13:39;56.63;;;27.00;;
53269;SDS011;39159;45.634;9.420;2022-12-17T15:16:05;54.03;;;27.33;;
53269;SDS011;39159;45.634;9.420;2022-12-17T15:18:31;52.38;;;25.25;;
53269;SDS011;39159;45.634;9.420;2022-12-17T15:20:57;53.58;;;26.92;;
53269;SDS011;39159;45.634;9.420;2022-12-17T15:23:22;62.25;;;29.52;;
53269;SDS011;39159;45.634;9.420;2022-12-17T15:25:49;53.90;;;28.10;;
53269;SDS011;39159;45.634;9.420;2022-12-17T15:28:16;55.05;;;27.45;;
53269;SDS011;39159;45.634;9.420;2022-12-17T15:30:43;54.85;;;26.85;;
53269;SDS011;39159;45.634;9.420;2022-12-17T15:33:09;61.10;;;28.95;;
53269;SDS011;39159;45.634;9.420;2022-12-17T15:35:35;62.20;;;28.85;;
53269;SDS011;39159;45.634;9.420;2022-12-17T15:38:01;56.65;;;28.45;;
53269;SDS011;39159;45.634;9.420;2022-12-17T15:40:27;59.92;;;27.80;;
53269;SDS011;39159;45.634;9.420;2022-12-17T15:42:52;45.45;;;24.23;;
53269;SDS011;39159;45.634;9.420;2022-12-17T15:45:40;49.33;;;23.45;;
53269;SDS011;39159;45.634;9.420;2022-12-17T15:48:10;46.97;;;24.25;;
53269;SDS011;39159;45.634;9.420;2022-12-17T15:50:37;60.33;;;24.25;;
53269;SDS011;39159;45.634;9.420;2022-12-17T15:53:03;48.05;;;24.52;;
53269;SDS011;39159;45.634;9.420;2022-12-17T15:55:29;59.30;;;24.20;;
53269;SDS011;39159;45.634;9.420;2022-12-17T15:57:55;67.20;;;25.98;;
53269;SDS011;39159;45.634;9.420;2022-12-17T16:00:20;62.28;;;26.40;;
53269;SDS011;39159;45.634;9.420;2022-12-17T16:02:47;59.75;;;28.00;;
53269;SDS011;39159;45.634;9.420;2022-12-17T16:05:13;65.53;;;26.95;;
53269;SDS011;39159;45.634;9.420;2022-12-17T16:07:38;69.10;;;28.23;;
53269;SDS011;39159;45.634;9.420;2022-12-17T16:10:04;61.15;;;27.05;;
53269;SDS011;39159;45.634;9.420;2022-12-17T16:12:30;67.80;;;28.25;;
53269;SDS011;39159;45.634;9.420;2022-12-17T16:14:56;72.35;;;27.83;;
53269;SDS011;39159;45.634;9.420;2022-12-17T16:17:22;82.00;;;30.00;;
53269;SDS011;39159;45.634;9.420;2022-12-17T16:19:47;62.90;;;28.67;;
53269;SDS011;39159;45.634;9.420;2022-12-17T16:22:13;86.65;;;31.80;;
53269;SDS011;39159;45.634;9.420;2022-12-17T16:24:38;81.53;;;28.63;;
53269;SDS011;39159;45.634;9.420;2022-12-17T16:27:04;91.93;;;32.03;;
53269;SDS011;39159;45.634;9.420;2022-12-17T16:29:30;75.82;;;31.80;;
53269;SDS011;39159;45.634;9.420;2022-12-17T16:31:56;88.65;;;31.35;;
53269;SDS011;39159;45.634;9.420;2022-12-17T16:34:21;83.95;;;32.22;;
53269;SDS011;39159;45.634;9.420;2022-12-17T16:36:47;67.15;;;30.40;;
53269;SDS011;39159;45.634;9.420;2022-12-17T16:39:13;87.75;;;31.55;;
53269;SDS011;39159;45.634;9.420;2022-12-17T16:41:40;101.22;;;30.58;;
53269;SDS011;39159;45.634;9.420;2022-12-17T16:44:06;71.07;;;29.08;;
53269;SDS011;39159;45.634;9.420;2022-12-17T16:46:35;72.10;;;31.10;;
53269;SDS011;39159;45.634;9.420;2022-12-17T16:49:07;91.40;;;32.58;;
53269;SDS011;39159;45.634;9.420;2022-12-17T16:51:34;77.75;;;31.75;;
53269;SDS011;39159;45.634;9.420;2022-12-17T16:54:02;82.22;;;33.17;;